sensor_id;sensor_type;location;lat;lon;timestamp;pressure;altitude;pressure_sealevel;temperature;humidity
40998;BME280;26740;45.944;12.480;2024-02-21T00:01:46;102187.53;;;7.44;100.00
40998;BME280;26740;45.944;12.480;2024-02-21T00:04:12;102187.41;;;7.31;100.00
40998;BME280;26740;45.944;12.480;2024-02-21T00:06:38;102184.38;;;7.26;100.00
40998;BME280;26740;45.944;12.480;2024-02-21T00:09:03;102177.69;;;7.13;100.00
40998;BME280;26740;45.944;12.480;2024-02-21T00:11:29;102181.66;;;7.11;100.00
40998;BME280;26740;45.944;12.480;2024-02-21T00:13:54;102177.88;;;7.12;100.00
40998;BME280;26740;45.944;12.480;2024-02-21T00:16:20;102176.22;;;7.17;100.00
40998;BME280;26740;45.944;12.480;2024-02-21T00:18:46;102184.78;;;7.22;100.00
40998;BME280;26740;45.944;12.480;2024-02-21T00:21:11;102173.84;;;7.14;100.00
40998;BME280;26740;45.944;12.480;2024-02-21T00:23:44;102172.00;;;7.00;100.00
40998;BME280;26740;45.944;12.480;2024-02-21T00:26:12;102174.63;;;6.87;100.00
40998;BME280;26740;45.944;12.480;2024-02-21T00:28:38;102170.94;;;6.79;100.00
40998;BME280;26740;45.944;12.480;2024-02-21T00:31:04;102167.66;;;6.91;100.00
40998;BME280;26740;45.944;12.480;2024-02-21T00:33:30;102176.66;;;6.78;100.00
40998;BME280;26740;45.944;12.480;2024-02-21T00:35:56;102171.19;;;6.84;100.00
40998;BME280;26740;45.944;12.480;2024-02-21T00:38:21;102171.59;;;6.81;100.00
40998;BME280;26740;45.944;12.480;2024-02-21T00:40:47;102174.19;;;6.68;100.00
40998;BME280;26740;45.944;12.480;2024-02-21T00:43:13;102162.78;;;6.56;100.00
40998;BME280;26740;45.944;12.480;2024-02-21T00:45:38;102162.31;;;6.53;100.00
40998;BME280;26740;45.944;12.480;2024-02-21T00:48:04;102162.56;;;6.51;100.00
40998;BME280;26740;45.944;12.480;2024-02-21T00:50:30;102155.88;;;6.45;100.00
40998;BME280;26740;45.944;12.480;2024-02-21T00:52:56;102153.63;;;6.34;100.00
40998;BME280;26740;45.944;12.480;2024-02-21T00:55:21;102156.47;;;6.26;100.00
40998;BME280;26740;45.944;12.480;2024-02-21T00:57:47;102151.56;;;6.21;100.00
40998;BME280;26740;45.944;12.480;2024-02-21T01:00:13;102149.63;;;6.22;100.00
40998;BME280;26740;45.944;12.480;2024-02-21T01:02:39;102150.31;;;6.09;100.00
40998;BME280;26740;45.944;12.480;2024-02-21T01:05:04;102146.47;;;5.95;100.00
40998;BME280;26740;45.944;12.480;2024-02-21T01:07:30;102146.13;;;5.98;100.00
40998;BME280;26740;45.944;12.480;2024-02-21T01:09:56;102143.44;;;5.90;100.00
40998;BME280;26740;45.944;12.480;2024-02-21T01:12:22;102144.28;;;5.91;100.00
40998;BME280;26740;45.944;12.480;2024-02-21T01:14:47;102143.25;;;5.92;100.00
40998;BME280;26740;45.944;12.480;2024-02-21T01:17:14;102138.94;;;5.89;100.00
40998;BME280;26740;45.944;12.480;2024-02-21T01:19:40;102139.25;;;5.79;100.00
40998;BME280;26740;45.944;12.480;2024-02-21T01:22:06;102138.13;;;5.74;100.00
40998;BME280;26740;45.944;12.480;2024-02-21T01:24:32;102140.56;;;5.68;100.00
40998;BME280;26740;45.944;12.480;2024-02-21T01:26:58;102136.88;;;5.61;100.00
40998;BME280;26740;45.944;12.480;2024-02-21T01:29:23;102138.44;;;5.56;100.00
40998;BME280;26740;45.944;12.480;2024-02-21T01:31:49;102135.78;;;5.47;100.00
40998;BME280;26740;45.944;12.480;2024-02-21T01:34:14;102140.81;;;5.44;100.00
40998;BME280;26740;45.944;12.480;2024-02-21T01:36:40;102139.84;;;5.37;100.00
40998;BME280;26740;45.944;12.480;2024-02-21T01:39:07;102144.56;;;5.28;100.00
40998;BME280;26740;45.944;12.480;2024-02-21T01:41:33;102142.38;;;5.23;100.00
40998;BME280;26740;45.944;12.480;2024-02-21T01:43:58;102141.41;;;5.16;100.00
40998;BME280;26740;45.944;12.480;2024-02-21T01:46:24;102144.50;;;5.13;100.00
40998;BME280;26740;45.944;12.480;2024-02-21T01:48:57;102150.28;;;5.26;100.00
40998;BME280;26740;45.944;12.480;2024-02-21T01:51:23;102151.06;;;5.35;100.00
40998;BME280;26740;45.944;12.480;2024-02-21T01:53:50;102145.06;;;5.31;100.00
40998;BME280;26740;45.944;12.480;2024-02-21T01:56:16;102148.38;;;5.27;100.00
40998;BME280;26740;45.944;12.480;2024-02-21T01:58:42;102143.13;;;5.17;100.00
40998;BME280;26740;45.944;12.480;2024-02-21T02:01:10;102140.25;;;5.10;100.00
40998;BME280;26740;45.944;12.480;2024-02-21T02:03:36;102142.56;;;4.99;100.00
40998;BME280;26740;45.944;12.480;2024-02-21T02:06:02;102142.94;;;4.96;100.00
40998;BME280;26740;45.944;12.480;2024-02-21T02:08:28;102138.31;;;4.96;100.00
40998;BME280;26740;45.944;12.480;2024-02-21T02:10:53;102137.81;;;4.92;100.00
40998;BME280;26740;45.944;12.480;2024-02-21T02:13:19;102139.44;;;5.02;100.00
40998;BME280;26740;45.944;12.480;2024-02-21T02:15:49;102138.78;;;5.00;100.00
40998;BME280;26740;45.944;12.480;2024-02-21T02:18:17;102140.00;;;4.97;100.00
40998;BME280;26740;45.944;12.480;2024-02-21T02:20:44;102146.66;;;4.80;100.00
40998;BME280;26740;45.944;12.480;2024-02-21T02:23:11;102137.50;;;4.87;100.00
40998;BME280;26740;45.944;12.480;2024-02-21T02:25:38;102137.28;;;4.66;100.00
40998;BME280;26740;45.944;12.480;2024-02-21T02:28:06;102140.59;;;4.61;100.00
40998;BME280;26740;45.944;12.480;2024-02-21T02:30:33;102136.59;;;4.64;100.00
40998;BME280;26740;45.944;12.480;2024-02-21T02:32:59;102138.22;;;4.50;100.00
40998;BME280;26740;45.944;12.480;2024-02-21T02:35:25;102134.81;;;4.48;100.00
40998;BME280;26740;45.944;12.480;2024-02-21T02:37:50;102127.06;;;4.51;100.00
40998;BME280;26740;45.944;12.480;2024-02-21T02:40:17;102129.56;;;4.38;100.00
40998;BME280;26740;45.944;12.480;2024-02-21T02:42:43;102122.00;;;4.32;100.00
40998;BME280;26740;45.944;12.480;2024-02-21T02:45:09;102112.75;;;4.25;100.00
40998;BME280;26740;45.944;12.480;2024-02-21T02:47:35;102111.25;;;4.22;100.00
40998;BME280;26740;45.944;12.480;2024-02-21T02:50:01;102113.00;;;4.15;100.00
40998;BME280;26740;45.944;12.480;2024-02-21T02:52:27;102108.16;;;4.17;100.00
40998;BME280;26740;45.944;12.480;2024-02-21T02:54:52;102108.50;;;4.22;100.00
40998;BME280;26740;45.944;12.480;2024-02-21T02:57:20;102104.69;;;4.23;100.00
40998;BME280;26740;45.944;12.480;2024-02-21T02:59:50;102110.75;;;4.18;100.00
40998;BME280;26740;45.944;12.480;2024-02-21T03:02:17;102108.16;;;4.17;100.00
40998;BME280;26740;45.944;12.480;2024-02-21T03:04:43;102107.50;;;4.15;100.00
40998;BME280;26740;45.944;12.480;2024-02-21T03:07:09;102103.19;;;4.21;100.00
40998;BME280;26740;45.944;12.480;2024-02-21T03:09:39;102101.78;;;4.25;100.00
40998;BME280;26740;45.944;12.480;2024-02-21T03:12:05;102093.34;;;4.26;100.00
40998;BME280;26740;45.944;12.480;2024-02-21T03:14:32;102101.78;;;4.25;100.00
40998;BME280;26740;45.944;12.480;2024-02-21T03:16:59;102104.16;;;4.28;100.00
40998;BME280;26740;45.944;12.480;2024-02-21T03:19:25;102102.84;;;4.15;100.00
40998;BME280;26740;45.944;12.480;2024-02-21T03:21:51;102103.59;;;4.01;100.00
40998;BME280;26740;45.944;12.480;2024-02-21T03:24:17;102100.34;;;3.97;100.00
40998;BME280;26740;45.944;12.480;2024-02-21T03:26:43;102107.94;;;3.95;100.00
40998;BME280;26740;45.944;12.480;2024-02-21T03:29:10;102107.09;;;3.87;100.00
40998;BME280;26740;45.944;12.480;2024-02-21T03:31:37;102105.19;;;3.87;100.00
40998;BME280;26740;45.944;12.480;2024-02-21T03:34:02;102113.94;;;3.91;100.00
40998;BME280;26740;45.944;12.480;2024-02-21T03:36:28;102110.88;;;3.77;100.00
40998;BME280;26740;45.944;12.480;2024-02-21T03:38:54;102113.69;;;3.69;100.00
40998;BME280;26740;45.944;12.480;2024-02-21T03:41:20;102116.09;;;3.64;100.00
40998;BME280;26740;45.944;12.480;2024-02-21T03:43:46;102111.94;;;3.68;100.00
40998;BME280;26740;45.944;12.480;2024-02-21T03:46:11;102115.59;;;3.60;100.00
40998;BME280;26740;45.944;12.480;2024-02-21T03:48:37;102113.38;;;3.48;100.00
40998;BME280;26740;45.944;12.480;2024-02-21T03:51:02;102117.19;;;3.30;100.00
40998;BME280;26740;45.944;12.480;2024-02-21T03:53:28;102116.81;;;3.33;100.00
40998;BME280;26740;45.944;12.480;2024-02-21T03:55:54;102127.13;;;3.31;100.00
40998;BME280;26740;45.944;12.480;2024-02-21T03:58:20;102126.78;;;3.26;100.00
40998;BME280;26740;45.944;12.480;2024-02-21T04:00:46;102123.00;;;3.27;100.00
40998;BME280;26740;45.944;12.480;2024-02-21T04:03:11;102127.16;;;3.23;100.00
40998;BME280;26740;45.944;12.480;2024-02-21T04:05:37;102128.34;;;3.20;100.00
40998;BME280;26740;45.944;12.480;2024-02-21T04:08:06;102128.50;;;3.27;100.00
40998;BME280;26740;45.944;12.480;2024-02-21T04:10:32;102130.38;;;3.35;100.00
40998;BME280;26740;45.944;12.480;2024-02-21T04:12:57;102128.34;;;3.29;100.00
40998;BME280;26740;45.944;12.480;2024-02-21T04:15:23;102123.88;;;3.36;100.00
40998;BME280;26740;45.944;12.480;2024-02-21T04:17:48;102121.13;;;3.28;100.00
40998;BME280;26740;45.944;12.480;2024-02-21T04:20:15;102120.59;;;3.24;100.00
40998;BME280;26740;45.944;12.480;2024-02-21T04:22:45;102119.75;;;3.15;100.00
40998;BME280;26740;45.944;12.480;2024-02-21T04:25:10;102124.22;;;3.08;100.00
40998;BME280;26740;45.944;12.480;2024-02-21T04:27:37;102120.28;;;3.02;100.00
40998;BME280;26740;45.944;12.480;2024-02-21T04:30:03;102121.63;;;3.07;100.00
40998;BME280;26740;45.944;12.480;2024-02-21T04:32:29;102117.00;;;3.15;100.00
40998;BME280;26740;45.944;12.480;2024-02-21T04:34:55;102120.28;;;3.11;100.00
40998;BME280;26740;45.944;12.480;2024-02-21T04:37:20;102114.97;;;3.09;100.00
40998;BME280;26740;45.944;12.480;2024-02-21T04:39:47;102114.44;;;3.06;100.00
40998;BME280;26740;45.944;12.480;2024-02-21T04:42:13;102109.47;;;3.01;100.00
40998;BME280;26740;45.944;12.480;2024-02-21T04:44:38;102115.28;;;2.98;100.00
40998;BME280;26740;45.944;12.480;2024-02-21T04:47:04;102114.44;;;3.06;100.00
40998;BME280;26740;45.944;12.480;2024-02-21T04:49:30;102118.06;;;3.14;100.00
40998;BME280;26740;45.944;12.480;2024-02-21T04:51:55;102129.34;;;3.28;100.00
40998;BME280;26740;45.944;12.480;2024-02-21T04:54:21;102127.13;;;3.31;100.00
40998;BME280;26740;45.944;12.480;2024-02-21T04:56:46;102126.63;;;3.11;100.00
40998;BME280;26740;45.944;12.480;2024-02-21T04:59:12;102133.47;;;3.15;100.00
40998;BME280;26740;45.944;12.480;2024-02-21T05:01:37;102130.22;;;3.20;100.00
40998;BME280;26740;45.944;12.480;2024-02-21T05:04:03;102132.94;;;3.28;100.00
40998;BME280;26740;45.944;12.480;2024-02-21T05:06:29;102125.44;;;3.30;100.00
40998;BME280;26740;45.944;12.480;2024-02-21T05:08:55;102132.28;;;3.34;100.00
40998;BME280;26740;45.944;12.480;2024-02-21T05:11:23;102132.63;;;3.39;100.00
40998;BME280;26740;45.944;12.480;2024-02-21T05:13:50;102130.03;;;3.30;100.00
40998;BME280;26740;45.944;12.480;2024-02-21T05:16:15;102125.75;;;3.19;100.00
40998;BME280;26740;45.944;12.480;2024-02-21T05:18:41;102131.09;;;3.04;100.00
40998;BME280;26740;45.944;12.480;2024-02-21T05:21:08;102122.31;;;3.09;100.00
40998;BME280;26740;45.944;12.480;2024-02-21T05:23:33;102127.13;;;3.07;100.00
40998;BME280;26740;45.944;12.480;2024-02-21T05:25:59;102132.28;;;3.01;100.00
40998;BME280;26740;45.944;12.480;2024-02-21T05:28:24;102140.50;;;3.01;100.00
40998;BME280;26740;45.944;12.480;2024-02-21T05:30:50;102142.22;;;2.94;100.00
40998;BME280;26740;45.944;12.480;2024-02-21T05:33:16;102140.00;;;2.90;100.00
40998;BME280;26740;45.944;12.480;2024-02-21T05:35:47;102134.50;;;2.81;100.00
40998;BME280;26740;45.944;12.480;2024-02-21T05:38:16;102143.75;;;2.89;100.00
40998;BME280;26740;45.944;12.480;2024-02-21T05:40:42;102145.97;;;2.77;100.00
40998;BME280;26740;45.944;12.480;2024-02-21T05:43:08;102144.09;;;2.77;100.00
40998;BME280;26740;45.944;12.480;2024-02-21T05:45:34;102146.47;;;2.80;100.00
40998;BME280;26740;45.944;12.480;2024-02-21T05:47:59;102134.00;;;2.86;100.00
40998;BME280;26740;45.944;12.480;2024-02-21T05:50:25;102139.84;;;3.08;100.00
40998;BME280;26740;45.944;12.480;2024-02-21T05:52:52;102147.53;;;2.79;100.00
40998;BME280;26740;45.944;12.480;2024-02-21T05:55:18;102143.06;;;2.70;100.00
40998;BME280;26740;45.944;12.480;2024-02-21T05:57:44;102150.06;;;2.64;100.00
40998;BME280;26740;45.944;12.480;2024-02-21T06:00:09;102142.03;;;2.63;100.00
40998;BME280;26740;45.944;12.480;2024-02-21T06:02:35;102139.97;;;2.65;100.00
40998;BME280;26740;45.944;12.480;2024-02-21T06:05:01;102137.03;;;2.58;100.00
40998;BME280;26740;45.944;12.480;2024-02-21T06:07:26;102142.19;;;2.61;100.00
40998;BME280;26740;45.944;12.480;2024-02-21T06:09:52;102139.28;;;2.71;100.00
40998;BME280;26740;45.944;12.480;2024-02-21T06:12:18;102139.81;;;2.83;100.00
40998;BME280;26740;45.944;12.480;2024-02-21T06:14:43;102137.41;;;2.88;100.00
40998;BME280;26740;45.944;12.480;2024-02-21T06:17:09;102146.16;;;2.92;100.00
40998;BME280;26740;45.944;12.480;2024-02-21T06:19:36;102146.16;;;3.00;100.00
40998;BME280;26740;45.944;12.480;2024-02-21T06:22:02;102137.09;;;3.08;100.00
40998;BME280;26740;45.944;12.480;2024-02-21T06:24:33;102148.22;;;3.06;100.00
40998;BME280;26740;45.944;12.480;2024-02-21T06:26:59;102141.88;;;2.89;100.00
40998;BME280;26740;45.944;12.480;2024-02-21T06:29:24;102146.16;;;3.00;100.00
40998;BME280;26740;45.944;12.480;2024-02-21T06:31:50;102142.91;;;3.04;100.00
40998;BME280;26740;45.944;12.480;2024-02-21T06:34:15;102149.09;;;3.23;100.00
40998;BME280;26740;45.944;12.480;2024-02-21T06:36:42;102145.31;;;3.24;100.00
40998;BME280;26740;45.944;12.480;2024-02-21T06:39:08;102160.03;;;3.56;100.00
40998;BME280;26740;45.944;12.480;2024-02-21T06:41:33;102159.50;;;4.25;100.00
40998;BME280;26740;45.944;12.480;2024-02-21T06:43:59;102156.09;;;4.85;100.00
40998;BME280;26740;45.944;12.480;2024-02-21T06:46:26;102154.00;;;5.48;100.00
40998;BME280;26740;45.944;12.480;2024-02-21T06:48:53;102155.25;;;6.29;100.00
40998;BME280;26740;45.944;12.480;2024-02-21T06:51:19;102160.28;;;6.76;100.00
40998;BME280;26740;45.944;12.480;2024-02-21T06:53:45;102160.34;;;7.48;100.00
40998;BME280;26740;45.944;12.480;2024-02-21T06:56:10;102157.88;;;8.23;100.00
40998;BME280;26740;45.944;12.480;2024-02-21T06:58:36;102162.22;;;8.39;100.00
40998;BME280;26740;45.944;12.480;2024-02-21T07:01:01;102167.53;;;8.82;100.00
40998;BME280;26740;45.944;12.480;2024-02-21T07:03:27;102164.63;;;9.37;100.00
40998;BME280;26740;45.944;12.480;2024-02-21T07:05:53;102170.41;;;9.48;100.00
40998;BME280;26740;45.944;12.480;2024-02-21T07:08:18;102164.22;;;9.73;100.00
40998;BME280;26740;45.944;12.480;2024-02-21T07:10:44;102168.19;;;10.31;100.00
40998;BME280;26740;45.944;12.480;2024-02-21T07:13:09;102165.19;;;10.84;100.00
40998;BME280;26740;45.944;12.480;2024-02-21T07:15:35;102175.19;;;10.47;100.00
40998;BME280;26740;45.944;12.480;2024-02-21T07:18:02;102159.13;;;10.94;100.00
40998;BME280;26740;45.944;12.480;2024-02-21T07:20:27;102178.13;;;11.61;100.00
40998;BME280;26740;45.944;12.480;2024-02-21T07:22:54;102179.75;;;12.00;100.00
40998;BME280;26740;45.944;12.480;2024-02-21T07:25:19;102182.22;;;12.08;100.00
40998;BME280;26740;45.944;12.480;2024-02-21T07:27:45;102182.47;;;12.44;100.00
40998;BME280;26740;45.944;12.480;2024-02-21T07:30:11;102182.66;;;12.79;100.00
40998;BME280;26740;45.944;12.480;2024-02-21T07:32:37;102188.25;;;12.05;100.00
40998;BME280;26740;45.944;12.480;2024-02-21T07:35:02;102189.34;;;11.79;100.00
40998;BME280;26740;45.944;12.480;2024-02-21T07:37:28;102185.38;;;12.12;100.00
40998;BME280;26740;45.944;12.480;2024-02-21T07:39:53;102185.53;;;11.99;100.00
40998;BME280;26740;45.944;12.480;2024-02-21T07:42:19;102182.84;;;12.47;100.00
40998;BME280;26740;45.944;12.480;2024-02-21T07:44:45;102185.19;;;12.50;100.00
40998;BME280;26740;45.944;12.480;2024-02-21T07:47:11;102180.81;;;12.73;100.00
40998;BME280;26740;45.944;12.480;2024-02-21T07:49:45;102181.97;;;12.84;100.00
40998;BME280;26740;45.944;12.480;2024-02-21T07:52:11;102182.28;;;12.76;100.00
40998;BME280;26740;45.944;12.480;2024-02-21T07:54:37;102184.50;;;12.55;100.00
40998;BME280;26740;45.944;12.480;2024-02-21T07:57:03;102193.38;;;12.45;100.00
40998;BME280;26740;45.944;12.480;2024-02-21T07:59:29;102192.47;;;13.00;100.00
40998;BME280;26740;45.944;12.480;2024-02-21T08:01:58;102200.78;;;13.49;100.00
40998;BME280;26740;45.944;12.480;2024-02-21T08:04:24;102195.00;;;14.21;100.00
40998;BME280;26740;45.944;12.480;2024-02-21T08:06:54;102194.00;;;15.04;100.00
40998;BME280;26740;45.944;12.480;2024-02-21T08:09:24;102202.34;;;16.12;71.07
40998;BME280;26740;45.944;12.480;2024-02-21T08:11:49;102197.72;;;16.40;70.07
40998;BME280;26740;45.944;12.480;2024-02-21T08:14:15;102203.72;;;15.92;84.60
40998;BME280;26740;45.944;12.480;2024-02-21T08:16:42;102191.78;;;16.36;68.37
40998;BME280;26740;45.944;12.480;2024-02-21T08:19:08;102199.38;;;17.02;66.00
40998;BME280;26740;45.944;12.480;2024-02-21T08:21:33;102202.28;;;17.12;61.83
40998;BME280;26740;45.944;12.480;2024-02-21T08:23:59;102196.75;;;17.17;67.23
40998;BME280;26740;45.944;12.480;2024-02-21T08:26:24;102192.34;;;18.29;61.92
40998;BME280;26740;45.944;12.480;2024-02-21T08:28:53;102195.72;;;18.26;55.14
40998;BME280;26740;45.944;12.480;2024-02-21T08:31:19;102193.28;;;19.03;53.32
40998;BME280;26740;45.944;12.480;2024-02-21T08:33:45;102200.06;;;19.17;51.38
40998;BME280;26740;45.944;12.480;2024-02-21T08:36:20;102204.06;;;21.10;50.35
40998;BME280;26740;45.944;12.480;2024-02-21T08:38:46;102198.69;;;20.33;49.97
40998;BME280;26740;45.944;12.480;2024-02-21T08:41:11;102191.72;;;19.94;49.49
40998;BME280;26740;45.944;12.480;2024-02-21T08:43:37;102190.28;;;19.45;53.37
40998;BME280;26740;45.944;12.480;2024-02-21T08:46:04;102196.13;;;19.18;52.55
40998;BME280;26740;45.944;12.480;2024-02-21T08:48:30;102206.34;;;19.45;51.26
40998;BME280;26740;45.944;12.480;2024-02-21T08:50:55;102201.00;;;19.54;50.56
40998;BME280;26740;45.944;12.480;2024-02-21T08:53:21;102203.50;;;20.22;50.31
40998;BME280;26740;45.944;12.480;2024-02-21T08:55:47;102201.00;;;21.51;46.36
40998;BME280;26740;45.944;12.480;2024-02-21T08:58:12;102207.69;;;22.53;42.14
40998;BME280;26740;45.944;12.480;2024-02-21T09:00:40;102192.72;;;20.50;47.98
40998;BME280;26740;45.944;12.480;2024-02-21T09:03:05;102189.69;;;19.33;51.02
40998;BME280;26740;45.944;12.480;2024-02-21T09:05:31;102192.81;;;19.42;48.92
40998;BME280;26740;45.944;12.480;2024-02-21T09:07:57;102198.66;;;21.98;44.79
40998;BME280;26740;45.944;12.480;2024-02-21T09:10:22;102197.97;;;20.87;45.11
40998;BME280;26740;45.944;12.480;2024-02-21T09:12:48;102201.47;;;21.98;43.77
40998;BME280;26740;45.944;12.480;2024-02-21T09:15:13;102203.31;;;22.42;44.05
40998;BME280;26740;45.944;12.480;2024-02-21T09:17:39;102205.16;;;23.00;41.55
40998;BME280;26740;45.944;12.480;2024-02-21T09:20:05;102202.31;;;23.76;41.14
40998;BME280;26740;45.944;12.480;2024-02-21T09:22:32;102199.19;;;23.77;41.36
40998;BME280;26740;45.944;12.480;2024-02-21T09:25:00;102203.56;;;24.91;37.67
40998;BME280;26740;45.944;12.480;2024-02-21T09:27:26;102196.34;;;24.71;35.37
40998;BME280;26740;45.944;12.480;2024-02-21T09:29:51;102200.53;;;24.73;34.35
40998;BME280;26740;45.944;12.480;2024-02-21T09:32:20;102190.81;;;24.88;31.38
40998;BME280;26740;45.944;12.480;2024-02-21T09:34:45;102182.97;;;25.22;33.09
40998;BME280;26740;45.944;12.480;2024-02-21T09:37:11;102183.47;;;25.38;29.92
40998;BME280;26740;45.944;12.480;2024-02-21T09:39:37;102179.75;;;25.01;29.92
40998;BME280;26740;45.944;12.480;2024-02-21T09:42:06;102181.97;;;23.36;32.52
40998;BME280;26740;45.944;12.480;2024-02-21T09:44:37;102181.16;;;23.35;29.61
40998;BME280;26740;45.944;12.480;2024-02-21T09:47:06;102175.00;;;23.80;31.70
40998;BME280;26740;45.944;12.480;2024-02-21T09:49:35;102180.72;;;22.37;29.50
40998;BME280;26740;45.944;12.480;2024-02-21T09:52:05;102164.00;;;21.02;34.07
40998;BME280;26740;45.944;12.480;2024-02-21T09:54:33;102164.44;;;21.25;34.13
40998;BME280;26740;45.944;12.480;2024-02-21T09:56:59;102168.47;;;20.43;37.08
40998;BME280;26740;45.944;12.480;2024-02-21T09:59:27;102168.56;;;20.07;34.18
40998;BME280;26740;45.944;12.480;2024-02-21T10:01:53;102168.75;;;18.93;36.34
40998;BME280;26740;45.944;12.480;2024-02-21T10:04:20;102162.69;;;19.73;37.73
40998;BME280;26740;45.944;12.480;2024-02-21T10:06:46;102161.56;;;19.79;36.16
40998;BME280;26740;45.944;12.480;2024-02-21T10:09:25;102162.03;;;19.14;37.71
40998;BME280;26740;45.944;12.480;2024-02-21T10:11:56;102167.13;;;18.49;37.19
40998;BME280;26740;45.944;12.480;2024-02-21T10:14:22;102162.59;;;17.58;40.26
40998;BME280;26740;45.944;12.480;2024-02-21T10:16:49;102165.97;;;17.92;41.91
40998;BME280;26740;45.944;12.480;2024-02-21T10:19:19;102162.41;;;19.80;37.72
40998;BME280;26740;45.944;12.480;2024-02-21T10:21:59;102169.69;;;19.55;36.32
40998;BME280;26740;45.944;12.480;2024-02-21T10:24:27;102163.50;;;18.49;38.48
40998;BME280;26740;45.944;12.480;2024-02-21T10:27:07;102165.09;;;17.87;38.76
40998;BME280;26740;45.944;12.480;2024-02-21T10:29:37;102159.03;;;18.05;37.88
40998;BME280;26740;45.944;12.480;2024-02-21T10:32:08;102153.34;;;19.37;36.53
40998;BME280;26740;45.944;12.480;2024-02-21T10:34:34;102158.03;;;20.44;33.65
40998;BME280;26740;45.944;12.480;2024-02-21T10:37:01;102159.28;;;22.25;31.23
40998;BME280;26740;45.944;12.480;2024-02-21T10:39:27;102156.16;;;22.03;31.71
40998;BME280;26740;45.944;12.480;2024-02-21T10:41:53;102150.66;;;21.13;33.08
40998;BME280;26740;45.944;12.480;2024-02-21T10:44:20;102151.56;;;22.60;31.43
40998;BME280;26740;45.944;12.480;2024-02-21T10:46:47;102152.94;;;23.77;30.80
40998;BME280;26740;45.944;12.480;2024-02-21T10:49:19;102144.66;;;24.27;29.71
40998;BME280;26740;45.944;12.480;2024-02-21T10:51:48;102144.59;;;23.53;30.65
40998;BME280;26740;45.944;12.480;2024-02-21T10:57:19;102112.13;;;20.28;36.56
40998;BME280;26740;45.944;12.480;2024-02-21T10:59:46;102113.25;;;20.22;34.79
40998;BME280;26740;45.944;12.480;2024-02-21T11:02:14;102112.50;;;20.71;36.06
40998;BME280;26740;45.944;12.480;2024-02-21T11:04:40;102109.19;;;21.43;32.74
40998;BME280;26740;45.944;12.480;2024-02-21T11:07:07;102108.69;;;20.96;33.64
40998;BME280;26740;45.944;12.480;2024-02-21T11:09:33;102090.75;;;21.16;35.34
40998;BME280;26740;45.944;12.480;2024-02-21T11:12:02;102089.28;;;21.24;35.44
40998;BME280;26740;45.944;12.480;2024-02-21T11:14:29;102095.53;;;21.85;33.64
40998;BME280;26740;45.944;12.480;2024-02-21T11:16:58;102088.94;;;23.57;32.45
40998;BME280;26740;45.944;12.480;2024-02-21T11:19:27;102079.28;;;23.58;31.53
40998;BME280;26740;45.944;12.480;2024-02-21T11:21:54;102076.75;;;22.85;34.07
40998;BME280;26740;45.944;12.480;2024-02-21T11:24:32;102067.63;;;22.88;33.58
40998;BME280;26740;45.944;12.480;2024-02-21T11:27:15;102066.50;;;20.05;36.41
40998;BME280;26740;45.944;12.480;2024-02-21T11:32:18;102050.50;;;19.85;37.97
40998;BME280;26740;45.944;12.480;2024-02-21T11:35:02;102047.13;;;19.73;37.80
40998;BME280;26740;45.944;12.480;2024-02-21T11:37:29;102044.94;;;20.35;39.50
40998;BME280;26740;45.944;12.480;2024-02-21T11:39:56;102040.13;;;20.91;37.05
40998;BME280;26740;45.944;12.480;2024-02-21T11:42:22;102032.69;;;20.66;35.20
40998;BME280;26740;45.944;12.480;2024-02-21T11:44:48;102035.50;;;20.60;37.91
40998;BME280;26740;45.944;12.480;2024-02-21T11:47:14;102042.53;;;20.68;34.94
40998;BME280;26740;45.944;12.480;2024-02-21T11:49:47;102031.94;;;20.39;35.45
40998;BME280;26740;45.944;12.480;2024-02-21T11:52:14;102026.78;;;19.97;39.12
40998;BME280;26740;45.944;12.480;2024-02-21T11:54:45;102020.97;;;19.57;39.61
40998;BME280;26740;45.944;12.480;2024-02-21T11:57:11;102019.25;;;18.79;39.68
40998;BME280;26740;45.944;12.480;2024-02-21T11:59:39;102018.69;;;18.77;37.98
40998;BME280;26740;45.944;12.480;2024-02-21T12:02:06;102014.81;;;18.83;38.17
40998;BME280;26740;45.944;12.480;2024-02-21T12:04:32;102006.66;;;18.87;40.26
40998;BME280;26740;45.944;12.480;2024-02-21T12:06:58;102008.81;;;19.62;37.90
40998;BME280;26740;45.944;12.480;2024-02-21T12:09:24;102008.25;;;19.75;39.51
40998;BME280;26740;45.944;12.480;2024-02-21T12:12:04;102008.81;;;19.62;36.84
40998;BME280;26740;45.944;12.480;2024-02-21T12:14:31;102005.72;;;19.68;36.96
40998;BME280;26740;45.944;12.480;2024-02-21T12:16:58;101997.31;;;18.76;38.54
40998;BME280;26740;45.944;12.480;2024-02-21T12:19:24;101997.34;;;19.12;38.07
40998;BME280;26740;45.944;12.480;2024-02-21T12:21:50;101980.16;;;18.67;39.08
40998;BME280;26740;45.944;12.480;2024-02-21T12:24:23;101984.34;;;19.52;39.97
40998;BME280;26740;45.944;12.480;2024-02-21T12:26:50;101982.38;;;19.32;38.15
40998;BME280;26740;45.944;12.480;2024-02-21T12:29:18;101977.09;;;19.15;39.53
40998;BME280;26740;45.944;12.480;2024-02-21T12:31:43;101969.47;;;18.74;38.68
40998;BME280;26740;45.944;12.480;2024-02-21T12:34:09;101965.00;;;18.99;38.31
40998;BME280;26740;45.944;12.480;2024-02-21T12:36:36;101964.94;;;19.35;40.17
40998;BME280;26740;45.944;12.480;2024-02-21T12:39:06;101955.69;;;19.09;39.86
40998;BME280;26740;45.944;12.480;2024-02-21T12:41:31;101953.44;;;18.96;39.66
40998;BME280;26740;45.944;12.480;2024-02-21T12:43:58;101947.22;;;19.14;39.06